Time;durP1;ratioP1;P1;durP2;ratioP2;P2;SDS_P1;SDS_P2;PMS_P1;PMS_P2;Temp;Humidity;BMP_temperature;BMP_pressure;BME280_temperature;BME280_humidity;BME280_pressure;Samples;Min_cycle;Max_cycle;Signal;HPM_P1;HPM_P2
2022/01/19 00:01:30;;;;;;;19.40;13.32;;;;;;;;;;5092642;28;20772;-70
2022/01/19 00:03:56;;;;;;;16.50;11.95;;;;;;;;;;5092870;28;20619;-70
2022/01/19 00:06:23;;;;;;;17.80;12.73;;;;;;;;;;5092928;28;20178;-71
2022/01/19 00:08:49;;;;;;;14.20;12.02;;;;;;;;;;5092902;28;20198;-71
2022/01/19 00:11:16;;;;;;;16.30;12.07;;;;;;;;;;5093097;28;20234;-72
2022/01/19 00:13:42;;;;;;;16.15;11.60;;;;;;;;;;5092832;28;20262;-71
2022/01/19 00:16:08;;;;;;;19.88;13.52;;;;;;;;;;5092656;28;20171;-71
2022/01/19 00:18:34;;;;;;;18.50;13.45;;;;;;;;;;5095119;28;20230;-70
2022/01/19 00:21:00;;;;;;;17.50;12.93;;;;;;;;;;5096511;28;20164;-70
2022/01/19 00:23:27;;;;;;;17.88;13.85;;;;;;;;;;5096513;28;20205;-70
2022/01/19 00:25:54;;;;;;;19.77;13.80;;;;;;;;;;5096388;28;20167;-72
2022/01/19 00:28:20;;;;;;;18.17;14.00;;;;;;;;;;5096634;28;20172;-71
2022/01/19 00:30:46;;;;;;;20.50;13.35;;;;;;;;;;5096573;28;20169;-70
2022/01/19 00:33:13;;;;;;;19.37;13.20;;;;;;;;;;5096192;28;20199;-70
2022/01/19 00:35:39;;;;;;;31.08;19.15;;;;;;;;;;5094888;28;20774;-70
2022/01/19 00:38:09;;;;;;;42.80;25.00;;;;;;;;;;5096252;28;20228;-71
2022/01/19 00:40:36;;;;;;;37.90;22.27;;;;;;;;;;5096142;28;20164;-70
2022/01/19 00:43:02;;;;;;;21.50;15.75;;;;;;;;;;5096078;28;20611;-70
2022/01/19 00:45:28;;;;;;;20.27;13.60;;;;;;;;;;5096342;28;20171;-70
2022/01/19 00:47:54;;;;;;;21.87;15.80;;;;;;;;;;5096085;28;20155;-70
2022/01/19 00:50:25;;;;;;;19.23;14.10;;;;;;;;;;5096048;28;20945;-69
2022/01/19 00:52:52;;;;;;;17.83;12.13;;;;;;;;;;5095796;28;20944;-70
2022/01/19 00:55:19;;;;;;;18.30;12.00;;;;;;;;;;5096072;28;20171;-69
2022/01/19 00:57:45;;;;;;;17.08;12.52;;;;;;;;;;5095868;28;20690;-69
2022/01/19 01:00:13;;;;;;;15.27;11.80;;;;;;;;;;5095737;28;20656;-70
2022/01/19 01:02:39;;;;;;;13.02;10.40;;;;;;;;;;5095915;28;20572;-70
2022/01/19 01:05:05;;;;;;;17.00;11.00;;;;;;;;;;5095648;28;20202;-70
2022/01/19 01:07:33;;;;;;;12.77;10.68;;;;;;;;;;5095645;28;20530;-70
2022/01/19 01:10:00;;;;;;;13.23;10.93;;;;;;;;;;5095826;28;20163;-70
2022/01/19 01:12:43;;;;;;;12.90;10.98;;;;;;;;;;5094179;28;20210;-70
2022/01/19 01:20:30;;;;;;;12.55;10.80;;;;;;;;;;5095684;28;20160;-70
2022/01/19 01:22:56;;;;;;;19.05;11.48;;;;;;;;;;5095571;28;20538;-70
2022/01/19 01:25:23;;;;;;;17.77;11.75;;;;;;;;;;5095296;28;20171;-70
2022/01/19 01:27:49;;;;;;;15.07;11.13;;;;;;;;;;5093945;28;20181;-70
2022/01/19 01:30:15;;;;;;;12.88;10.40;;;;;;;;;;5095166;28;20159;-70
2022/01/19 01:32:41;;;;;;;14.50;11.15;;;;;;;;;;5095067;28;20198;-71
2022/01/19 01:35:08;;;;;;;14.18;11.05;;;;;;;;;;5095090;28;20174;-71
2022/01/19 01:37:33;;;;;;;14.65;11.20;;;;;;;;;;5095062;28;20246;-71
2022/01/19 01:40:01;;;;;;;12.77;10.00;;;;;;;;;;5094928;28;20202;-71
2022/01/19 01:42:27;;;;;;;11.90;9.70;;;;;;;;;;5095118;28;20754;-71
2022/01/19 01:44:56;;;;;;;13.23;10.32;;;;;;;;;;5095196;28;20167;-69
2022/01/19 01:47:27;;;;;;;11.35;9.65;;;;;;;;;;5094844;28;20181;-70
2022/01/19 01:55:18;;;;;;;14.20;10.25;;;;;;;;;;5094958;28;20232;-70
2022/01/19 01:57:44;;;;;;;12.10;9.13;;;;;;;;;;5094633;28;20542;-70
2022/01/19 02:00:12;;;;;;;10.02;9.00;;;;;;;;;;5094692;28;20171;-70
2022/01/19 02:02:39;;;;;;;9.25;8.32;;;;;;;;;;5094607;28;20627;-70
2022/01/19 02:05:09;;;;;;;10.48;9.43;;;;;;;;;;5094804;28;20220;-71
2022/01/19 02:23:50;;;;;;;15.35;9.90;;;;;;;;;;5094252;28;20173;-70
2022/01/19 02:26:45;;;;;;;13.82;9.30;;;;;;;;;;5094382;28;20197;-70
2022/01/19 02:36:28;;;;;;;13.18;10.43;;;;;;;;;;5094245;28;20206;-70
2022/01/19 02:42:30;;;;;;;10.07;9.07;;;;;;;;;;5094061;28;20467;-70
2022/01/19 02:49:53;;;;;;;10.93;9.50;;;;;;;;;;5094067;28;20266;-70
2022/01/19 02:52:20;;;;;;;10.90;9.77;;;;;;;;;;5093601;28;20886;-70
2022/01/19 02:54:46;;;;;;;11.35;9.75;;;;;;;;;;5093627;28;20171;-70
2022/01/19 02:57:13;;;;;;;10.35;9.15;;;;;;;;;;5093604;28;20630;-70
2022/01/19 03:10:23;;;;;;;12.57;9.63;;;;;;;;;;5093477;28;20170;-70
2022/01/19 03:12:49;;;;;;;13.30;9.30;;;;;;;;;;5093320;28;20210;-69
2022/01/19 03:15:15;;;;;;;10.23;9.10;;;;;;;;;;5093400;28;20182;-68
2022/01/19 03:17:44;;;;;;;10.95;8.93;;;;;;;;;;5093164;28;20963;-68
2022/01/19 03:20:11;;;;;;;10.52;9.52;;;;;;;;;;5093288;28;20285;-69
2022/01/19 03:22:45;;;;;;;10.20;9.30;;;;;;;;;;5093386;28;20521;-69
2022/01/19 03:25:12;;;;;;;9.45;8.45;;;;;;;;;;5093367;28;20602;-69
2022/01/19 03:27:47;;;;;;;10.10;8.98;;;;;;;;;;5093851;28;20182;-71
2022/01/19 03:30:14;;;;;;;11.43;10.25;;;;;;;;;;5093914;28;20248;-69
2022/01/19 03:32:42;;;;;;;10.65;9.55;;;;;;;;;;5094523;28;20245;-69
2022/01/19 03:35:09;;;;;;;8.88;8.07;;;;;;;;;;5095706;28;20168;-69
2022/01/19 03:37:35;;;;;;;9.02;8.13;;;;;;;;;;5093586;28;20174;-69
2022/01/19 03:40:01;;;;;;;11.30;8.50;;;;;;;;;;5093938;28;20535;-69
2022/01/19 03:42:27;;;;;;;9.63;7.93;;;;;;;;;;5093588;28;20320;-69
2022/01/19 03:44:53;;;;;;;10.00;9.00;;;;;;;;;;5093509;28;20207;-70
2022/01/19 03:47:19;;;;;;;10.75;8.35;;;;;;;;;;5093373;28;20408;-70
2022/01/19 03:49:45;;;;;;;8.80;8.05;;;;;;;;;;5093161;28;20242;-69
2022/01/19 03:52:11;;;;;;;10.47;8.27;;;;;;;;;;5093300;28;20210;-70
2022/01/19 03:54:42;;;;;;;10.20;8.05;;;;;;;;;;5097047;28;20405;-70
2022/01/19 03:57:16;;;;;;;9.25;8.23;;;;;;;;;;5096997;28;20178;-70
2022/01/19 03:59:42;;;;;;;11.15;8.32;;;;;;;;;;5097213;28;20175;-70
2022/01/19 04:02:08;;;;;;;9.73;8.80;;;;;;;;;;5096939;28;20620;-69
2022/01/19 04:04:40;;;;;;;9.75;8.63;;;;;;;;;;5096843;28;20466;-70
2022/01/19 04:09:32;;;;;;;9.27;8.45;;;;;;;;;;5096840;28;20502;-70
2022/01/19 04:11:58;;;;;;;11.60;9.07;;;;;;;;;;5096597;28;20199;-69
2022/01/19 04:14:25;;;;;;;10.20;8.55;;;;;;;;;;5096733;28;20198;-69
2022/01/19 04:17:04;;;;;;;11.27;9.35;;;;;;;;;;5096476;28;20181;-68
2022/01/19 04:19:52;;;;;;;15.57;10.32;;;;;;;;;;5096576;28;20178;-69
2022/01/19 04:22:18;;;;;;;9.73;8.73;;;;;;;;;;5096052;28;20191;-69
2022/01/19 04:24:45;;;;;;;11.60;9.07;;;;;;;;;;5096472;28;20167;-69
2022/01/19 04:29:48;;;;;;;8.93;8.02;;;;;;;;;;5096671;28;20225;-69
2022/01/19 04:32:22;;;;;;;13.00;9.80;;;;;;;;;;5096500;28;20207;-69
2022/01/19 04:34:49;;;;;;;11.77;9.38;;;;;;;;;;5094918;28;20605;-69
2022/01/19 05:06:37;;;;;;;19.08;8.50;;;;;;;;;;5095692;28;20167;-70
2022/01/19 05:09:11;;;;;;;11.93;8.52;;;;;;;;;;5095617;28;20615;-70
2022/01/19 05:14:22;;;;;;;12.35;8.38;;;;;;;;;;5095466;28;20258;-69
2022/01/19 05:16:50;;;;;;;12.88;9.30;;;;;;;;;;5095379;28;20221;-69
2022/01/19 05:19:16;;;;;;;11.60;9.68;;;;;;;;;;5095406;28;20175;-68
2022/01/19 05:21:42;;;;;;;11.20;9.73;;;;;;;;;;5095364;28;20171;-69
2022/01/19 05:24:08;;;;;;;12.30;9.80;;;;;;;;;;5095373;28;20409;-69
2022/01/19 05:26:36;;;;;;;14.30;10.43;;;;;;;;;;5095524;28;20441;-69
2022/01/19 05:29:02;;;;;;;16.05;10.40;;;;;;;;;;5095323;28;20186;-69
2022/01/19 05:31:28;;;;;;;15.82;12.50;;;;;;;;;;5095231;28;20195;-69
2022/01/19 05:33:55;;;;;;;11.02;9.85;;;;;;;;;;5095147;28;20217;-69
2022/01/19 05:36:21;;;;;;;12.32;9.48;;;;;;;;;;5095037;28;20563;-69
2022/01/19 05:38:47;;;;;;;12.57;9.82;;;;;;;;;;5094944;28;20437;-69
2022/01/19 05:41:13;;;;;;;13.90;9.20;;;;;;;;;;5095002;28;20403;-69
2022/01/19 05:43:39;;;;;;;11.98;9.38;;;;;;;;;;5094860;28;20409;-69
2022/01/19 05:46:05;;;;;;;16.90;12.50;;;;;;;;;;5095008;28;20224;-69
2022/01/19 05:48:31;;;;;;;16.00;11.60;;;;;;;;;;5094793;28;20241;-69
2022/01/19 05:50:57;;;;;;;9.77;8.77;;;;;;;;;;5094808;28;20198;-69
2022/01/19 05:53:23;;;;;;;11.70;9.57;;;;;;;;;;5094624;28;20556;-69
2022/01/19 05:55:49;;;;;;;11.27;8.70;;;;;;;;;;5094964;28;20772;-69
2022/01/19 05:58:15;;;;;;;10.52;8.13;;;;;;;;;;5094668;28;20171;-69
2022/01/19 06:00:41;;;;;;;10.30;8.33;;;;;;;;;;5094640;28;20240;-69
2022/01/19 06:03:07;;;;;;;10.77;9.38;;;;;;;;;;5094596;28;20405;-69
2022/01/19 06:05:34;;;;;;;9.68;8.68;;;;;;;;;;5094578;28;20554;-69
2022/01/19 06:08:16;;;;;;;11.65;8.80;;;;;;;;;;5094744;28;20173;-69
2022/01/19 06:10:42;;;;;;;15.15;10.23;;;;;;;;;;5094405;28;20159;-71
2022/01/19 06:13:08;;;;;;;10.90;9.40;;;;;;;;;;5094348;28;20285;-70
2022/01/19 06:15:34;;;;;;;10.77;9.77;;;;;;;;;;5093482;28;20237;-70
2022/01/19 06:18:00;;;;;;;10.60;9.57;;;;;;;;;;5094113;28;20301;-70
2022/01/19 06:20:26;;;;;;;14.30;11.93;;;;;;;;;;5094505;28;20457;-69
2022/01/19 06:22:52;;;;;;;13.55;11.45;;;;;;;;;;5094211;28;20839;-70
2022/01/19 06:25:18;;;;;;;17.60;12.13;;;;;;;;;;5092935;28;20265;-70
2022/01/19 06:27:47;;;;;;;15.30;10.85;;;;;;;;;;5094109;28;20167;-69
2022/01/19 06:30:14;;;;;;;16.35;12.52;;;;;;;;;;5094153;28;20523;-70
2022/01/19 06:32:40;;;;;;;17.67;12.05;;;;;;;;;;5094192;28;20238;-70
2022/01/19 06:35:07;;;;;;;14.93;12.55;;;;;;;;;;5094024;28;20215;-70
2022/01/19 06:37:33;;;;;;;16.00;12.25;;;;;;;;;;5093939;28;20610;-70
2022/01/19 06:39:59;;;;;;;20.48;12.00;;;;;;;;;;5093907;28;20171;-69
2022/01/19 06:42:25;;;;;;;17.40;11.07;;;;;;;;;;5093867;28;20171;-70
2022/01/19 06:44:51;;;;;;;16.55;12.40;;;;;;;;;;5093832;28;20857;-70
2022/01/19 06:47:17;;;;;;;16.03;12.10;;;;;;;;;;5093896;28;20216;-70
2022/01/19 06:49:43;;;;;;;15.20;11.88;;;;;;;;;;5093866;28;20762;-70
2022/01/19 06:52:09;;;;;;;16.80;12.10;;;;;;;;;;5093598;28;20214;-70
2022/01/19 06:54:35;;;;;;;15.45;11.80;;;;;;;;;;5092743;28;20516;-69
2022/01/19 06:57:01;;;;;;;18.63;13.30;;;;;;;;;;5093614;28;20296;-70
2022/01/19 06:59:28;;;;;;;18.63;13.33;;;;;;;;;;5093595;28;20420;-70
2022/01/19 07:01:54;;;;;;;21.13;13.15;;;;;;;;;;5093517;28;20416;-70
2022/01/19 07:04:20;;;;;;;23.27;15.00;;;;;;;;;;5093740;28;20163;-70
2022/01/19 07:06:46;;;;;;;26.33;15.80;;;;;;;;;;5093833;28;20173;-70
2022/01/19 07:09:12;;;;;;;33.30;16.90;;;;;;;;;;5093631;28;20246;-70
2022/01/19 07:11:38;;;;;;;34.47;18.17;;;;;;;;;;5093585;28;20729;-70
2022/01/19 07:14:05;;;;;;;36.40;19.27;;;;;;;;;;5093845;28;20502;-70
2022/01/19 07:16:31;;;;;;;39.92;19.52;;;;;;;;;;5093514;28;20195;-70
2022/01/19 07:18:57;;;;;;;45.47;23.70;;;;;;;;;;5093404;28;20218;-70
2022/01/19 07:21:23;;;;;;;32.60;20.33;;;;;;;;;;5093509;28;20175;-70
2022/01/19 07:23:49;;;;;;;37.72;22.48;;;;;;;;;;5093446;28;20170;-70
2022/01/19 07:26:15;;;;;;;42.70;25.47;;;;;;;;;;5093819;28;20171;-70
2022/01/19 07:28:41;;;;;;;53.90;31.38;;;;;;;;;;5097999;28;20640;-74
2022/01/19 07:31:07;;;;;;;25.33;17.43;;;;;;;;;;5097692;28;20333;-70
2022/01/19 07:33:33;;;;;;;23.42;15.25;;;;;;;;;;5097664;28;20468;-77
2022/01/19 07:35:59;;;;;;;19.27;14.32;;;;;;;;;;5097535;28;20614;-74
2022/01/19 07:38:26;;;;;;;20.88;15.25;;;;;;;;;;5096186;28;20227;-70
2022/01/19 07:40:52;;;;;;;25.20;16.38;;;;;;;;;;5097398;28;20162;-71
2022/01/19 07:43:18;;;;;;;24.55;14.88;;;;;;;;;;5097605;28;20167;-69
2022/01/19 07:45:44;;;;;;;14.23;12.07;;;;;;;;;;5097498;28;20171;-68
2022/01/19 07:48:11;;;;;;;13.07;10.57;;;;;;;;;;5095950;28;20799;-68
2022/01/19 07:50:37;;;;;;;18.70;11.32;;;;;;;;;;5097295;28;20163;-69
2022/01/19 07:53:04;;;;;;;15.13;11.50;;;;;;;;;;5097215;28;20256;-69
2022/01/19 07:55:30;;;;;;;15.13;10.63;;;;;;;;;;5097379;28;20179;-69
2022/01/19 07:57:56;;;;;;;11.80;10.43;;;;;;;;;;5097136;28;20537;-69
2022/01/19 08:00:22;;;;;;;15.75;11.35;;;;;;;;;;5097270;28;20491;-70
2022/01/19 08:02:49;;;;;;;20.43;14.87;;;;;;;;;;5097325;28;20254;-69
2022/01/19 08:05:16;;;;;;;28.30;18.45;;;;;;;;;;5097248;28;20405;-68
2022/01/19 08:07:42;;;;;;;26.95;18.98;;;;;;;;;;5097036;28;20174;-69
2022/01/19 08:10:09;;;;;;;33.42;20.27;;;;;;;;;;5096843;28;20178;-68
2022/01/19 08:12:35;;;;;;;30.05;19.42;;;;;;;;;;5095549;28;20293;-68
2022/01/19 08:15:01;;;;;;;28.77;18.38;;;;;;;;;;5096889;28;20168;-69
2022/01/19 08:17:27;;;;;;;89.03;51.50;;;;;;;;;;5096739;28;20562;-68
2022/01/19 08:19:54;;;;;;;143.85;87.55;;;;;;;;;;5096736;28;20175;-68
2022/01/19 08:22:20;;;;;;;27.80;19.80;;;;;;;;;;5096652;28;20167;-68
2022/01/19 08:24:46;;;;;;;25.05;17.00;;;;;;;;;;5096731;28;20236;-67
2022/01/19 08:27:12;;;;;;;24.95;16.50;;;;;;;;;;5096704;28;20171;-68
2022/01/19 08:29:38;;;;;;;27.38;17.65;;;;;;;;;;5096651;28;20620;-70
2022/01/19 08:32:05;;;;;;;32.20;18.55;;;;;;;;;;5096648;28;20718;-68
2022/01/19 08:34:31;;;;;;;25.63;17.75;;;;;;;;;;5096743;28;20174;-69
2022/01/19 08:36:57;;;;;;;28.55;18.10;;;;;;;;;;5096468;28;20220;-69
2022/01/19 08:39:24;;;;;;;24.10;17.77;;;;;;;;;;5095566;28;20171;-70
2022/01/19 08:41:50;;;;;;;28.67;19.10;;;;;;;;;;5096361;28;20444;-72
2022/01/19 08:44:16;;;;;;;28.70;19.45;;;;;;;;;;5096378;28;20532;-73
2022/01/19 08:46:44;;;;;;;27.83;20.30;;;;;;;;;;5096514;28;20175;-72
2022/01/19 08:49:10;;;;;;;30.67;18.27;;;;;;;;;;5096220;28;20164;-72
2022/01/19 08:51:36;;;;;;;27.50;16.60;;;;;;;;;;5096065;28;20226;-75
2022/01/19 08:54:02;;;;;;;23.75;14.98;;;;;;;;;;5096118;28;20209;-72
2022/01/19 08:56:28;;;;;;;21.15;15.25;;;;;;;;;;5096062;28;20184;-74
2022/01/19 08:58:54;;;;;;;21.27;15.35;;;;;;;;;;5096184;28;20170;-75
2022/01/19 09:01:20;;;;;;;22.63;14.03;;;;;;;;;;5096286;28;20171;-75
2022/01/19 09:03:46;;;;;;;21.90;14.07;;;;;;;;;;5096008;28;20864;-75
2022/01/19 09:06:12;;;;;;;16.80;13.75;;;;;;;;;;5095995;28;20393;-74
2022/01/19 09:08:38;;;;;;;20.05;13.05;;;;;;;;;;5094612;28;20179;-71
2022/01/19 09:11:05;;;;;;;18.70;13.87;;;;;;;;;;5096021;28;20637;-75
2022/01/19 09:13:32;;;;;;;16.57;12.77;;;;;;;;;;5095977;28;20559;-70
2022/01/19 09:15:58;;;;;;;17.43;12.50;;;;;;;;;;5095816;28;20372;-74
2022/01/19 09:18:24;;;;;;;15.83;12.23;;;;;;;;;;5095624;28;21054;-72
2022/01/19 09:20:50;;;;;;;14.33;12.50;;;;;;;;;;5095555;28;20390;-69
2022/01/19 09:23:16;;;;;;;17.60;12.57;;;;;;;;;;5095659;28;20892;-70
2022/01/19 09:25:42;;;;;;;15.77;13.67;;;;;;;;;;5095504;28;20401;-73
2022/01/19 09:28:08;;;;;;;15.80;12.67;;;;;;;;;;5095460;28;20450;-76
2022/01/19 09:30:35;;;;;;;15.50;13.70;;;;;;;;;;5095686;28;20406;-74
2022/01/19 09:33:09;;;;;;;22.37;16.63;;;;;;;;;;5095243;28;20946;-75
2022/01/19 09:36:31;;;;;;;26.37;19.80;;;;;;;;;;5095298;28;20418;-72
2022/01/19 09:38:33;;;;;;;26.93;20.30;;;;;;;;;;5089494;28;20421;-74
2022/01/19 09:40:59;;;;;;;25.93;20.07;;;;;;;;;;5095590;28;20401;-71
2022/01/19 09:43:26;;;;;;;25.90;20.20;;;;;;;;;;5095483;28;20760;-74
2022/01/19 09:45:53;;;;;;;28.33;20.50;;;;;;;;;;5095282;28;20397;-73
2022/01/19 09:48:19;;;;;;;24.43;19.40;;;;;;;;;;5095099;28;20396;-73
2022/01/19 09:50:45;;;;;;;24.80;20.27;;;;;;;;;;5095155;28;20755;-70
2022/01/19 09:53:11;;;;;;;39.37;22.43;;;;;;;;;;5095012;28;20475;-74
2022/01/19 09:55:41;;;;;;;25.20;21.60;;;;;;;;;;5095033;28;20400;-74
2022/01/19 09:58:07;;;;;;;30.03;23.30;;;;;;;;;;5095324;28;20444;-75
2022/01/19 10:00:33;;;;;;;29.40;22.70;;;;;;;;;;5094918;28;20899;-71
2022/01/19 10:03:18;;;;;;;30.60;23.53;;;;;;;;;;5094892;28;20397;-75
2022/01/19 10:05:55;;;;;;;27.40;22.97;;;;;;;;;;5094826;28;20871;-72
2022/01/19 10:08:27;;;;;;;25.73;20.37;;;;;;;;;;5094797;28;20487;-75
2022/01/19 10:11:12;;;;;;;28.93;21.93;;;;;;;;;;5095004;28;20406;-74
2022/01/19 10:16:59;;;;;;;28.60;20.60;;;;;;;;;;5094894;28;20985;-73
2022/01/19 10:19:25;;;;;;;32.10;21.77;;;;;;;;;;5094561;28;20462;-75
2022/01/19 10:22:03;;;;;;;29.97;18.33;;;;;;;;;;5094530;28;20771;-72
2022/01/19 10:24:33;;;;;;;30.60;20.00;;;;;;;;;;5094508;28;20372;-74
2022/01/19 10:27:25;;;;;;;28.60;18.90;;;;;;;;;;5094761;28;20397;-73
2022/01/19 10:29:52;;;;;;;32.43;21.20;;;;;;;;;;5071075;28;20574;-74
2022/01/19 10:32:23;;;;;;;33.47;19.43;;;;;;;;;;5093139;28;20465;-73
2022/01/19 10:34:49;;;;;;;32.60;19.37;;;;;;;;;;5094572;28;20408;-72
2022/01/19 10:37:21;;;;;;;28.83;18.43;;;;;;;;;;5094844;28;20534;-77
2022/01/19 10:39:53;;;;;;;26.77;18.00;;;;;;;;;;5094633;28;20588;-78
2022/01/19 10:42:27;;;;;;;34.70;22.07;;;;;;;;;;5094194;28;20886;-77
2022/01/19 10:44:55;;;;;;;26.00;18.20;;;;;;;;;;5094219;28;20480;-78
2022/01/19 10:47:39;;;;;;;32.07;24.23;;;;;;;;;;5094107;28;20404;-77
2022/01/19 10:50:06;;;;;;;22.77;16.80;;;;;;;;;;5094083;28;20492;-74
2022/01/19 10:52:34;;;;;;;32.67;23.10;;;;;;;;;;5093937;28;20529;-75
2022/01/19 10:55:00;;;;;;;25.30;19.47;;;;;;;;;;5094157;28;20413;-74
2022/01/19 10:57:28;;;;;;;22.23;17.50;;;;;;;;;;5094013;28;20492;-75
2022/01/19 11:00:14;;;;;;;25.10;18.63;;;;;;;;;;5093809;28;20412;-78
2022/01/19 11:02:41;;;;;;;25.53;18.80;;;;;;;;;;5092137;28;20409;-74
2022/01/19 11:05:07;;;;;;;22.83;17.53;;;;;;;;;;5093880;28;20420;-77
2022/01/19 11:07:34;;;;;;;26.10;17.93;;;;;;;;;;5093800;28;20393;-78
2022/01/19 11:10:22;;;;;;;29.93;15.90;;;;;;;;;;5093820;28;20818;-78
2022/01/19 11:12:48;;;;;;;23.10;18.90;;;;;;;;;;5093175;28;20575;-77
2022/01/19 11:15:17;;;;;;;22.40;17.40;;;;;;;;;;5093943;28;20459;-74
2022/01/19 11:17:44;;;;;;;25.63;18.73;;;;;;;;;;5093484;28;20464;-74
2022/01/19 11:20:12;;;;;;;26.83;19.30;;;;;;;;;;5093608;28;20401;-74
2022/01/19 11:22:56;;;;;;;28.37;20.33;;;;;;;;;;5093868;28;20463;-70
2022/01/19 11:25:27;;;;;;;27.10;18.87;;;;;;;;;;5093603;28;20405;-75
2022/01/19 11:27:54;;;;;;;25.60;19.03;;;;;;;;;;5093871;28;20772;-75
2022/01/19 11:30:25;;;;;;;25.73;19.90;;;;;;;;;;5093447;28;20413;-70
2022/01/19 11:33:09;;;;;;;28.00;18.97;;;;;;;;;;5093610;28;20475;-72
2022/01/19 11:35:35;;;;;;;31.40;18.87;;;;;;;;;;5093539;28;20766;-73
2022/01/19 11:38:02;;;;;;;30.83;18.60;;;;;;;;;;5093727;28;20401;-75
2022/01/19 11:40:35;;;;;;;34.23;19.30;;;;;;;;;;5093421;28;20397;-77
2022/01/19 11:43:17;;;;;;;33.53;19.07;;;;;;;;;;5093676;28;20410;-79
2022/01/19 11:45:43;;;;;;;29.77;19.20;;;;;;;;;;5093679;28;20401;-71
2022/01/19 11:48:16;;;;;;;36.30;20.47;;;;;;;;;;5092040;28;20410;-75
2022/01/19 11:50:42;;;;;;;32.10;19.80;;;;;;;;;;5093387;28;20753;-72
2022/01/19 11:53:10;;;;;;;32.03;20.30;;;;;;;;;;5093246;28;20468;-75
2022/01/19 11:55:37;;;;;;;36.83;20.83;;;;;;;;;;5093410;28;20397;-73
2022/01/19 11:58:20;;;;;;;25.60;17.00;;;;;;;;;;5093371;28;20409;-73
2022/01/19 12:00:47;;;;;;;28.63;18.50;;;;;;;;;;5093193;28;20466;-72
2022/01/19 12:03:32;;;;;;;27.93;18.30;;;;;;;;;;5093224;28;20500;-74
2022/01/19 12:05:58;;;;;;;27.33;18.77;;;;;;;;;;5093039;28;20393;-76
2022/01/19 12:08:28;;;;;;;26.10;18.70;;;;;;;;;;5093088;28;20400;-76
2022/01/19 12:10:57;;;;;;;27.20;19.40;;;;;;;;;;5093090;28;20436;-76
2022/01/19 12:13:36;;;;;;;31.63;21.80;;;;;;;;;;5093469;28;20541;-75
2022/01/19 12:16:17;;;;;;;26.13;18.20;;;;;;;;;;5096836;28;20413;-76
2022/01/19 12:18:43;;;;;;;26.83;19.10;;;;;;;;;;5096568;28;20982;-76
2022/01/19 12:21:10;;;;;;;24.07;18.10;;;;;;;;;;5096947;28;20400;-74
2022/01/19 12:23:37;;;;;;;22.50;17.70;;;;;;;;;;5096846;28;20905;-76
2022/01/19 12:26:06;;;;;;;25.83;18.17;;;;;;;;;;5096698;28;20389;-77
2022/01/19 12:28:52;;;;;;;22.93;17.60;;;;;;;;;;5096566;28;20459;-74
2022/01/19 12:31:24;;;;;;;24.60;17.97;;;;;;;;;;5096421;28;20388;-76
2022/01/19 12:34:16;;;;;;;24.73;18.10;;;;;;;;;;5096071;28;20417;-75
2022/01/19 12:36:47;;;;;;;23.37;16.63;;;;;;;;;;5096353;28;20490;-79
2022/01/19 12:39:25;;;;;;;25.07;18.20;;;;;;;;;;5096658;28;20392;-76
2022/01/19 12:42:02;;;;;;;22.07;13.97;;;;;;;;;;5095389;28;20845;-75
2022/01/19 12:44:47;;;;;;;25.13;18.30;;;;;;;;;;5096385;28;20426;-75
2022/01/19 12:47:24;;;;;;;20.83;16.50;;;;;;;;;;5096187;28;20408;-75
2022/01/19 12:49:55;;;;;;;23.10;17.97;;;;;;;;;;5096222;28;20408;-77
2022/01/19 12:52:22;;;;;;;24.10;18.73;;;;;;;;;;5096201;28;20449;-74
2022/01/19 12:54:48;;;;;;;25.17;18.00;;;;;;;;;;5096176;28;20874;-75
2022/01/19 12:57:15;;;;;;;25.57;17.97;;;;;;;;;;5096125;28;20386;-75
2022/01/19 12:59:42;;;;;;;26.03;18.77;;;;;;;;;;5095996;28;20431;-76
2022/01/19 13:02:09;;;;;;;24.67;16.93;;;;;;;;;;5095908;28;20397;-77
2022/01/19 13:04:36;;;;;;;25.00;17.83;;;;;;;;;;5095950;28;20405;-75
2022/01/19 13:07:17;;;;;;;23.63;17.57;;;;;;;;;;5095838;28;20418;-73
2022/01/19 13:13:13;;;;;;;24.47;17.40;;;;;;;;;;5095998;28;20554;-73
2022/01/19 13:15:49;;;;;;;22.23;17.17;;;;;;;;;;5095797;28;20423;-72
2022/01/19 13:18:19;;;;;;;26.47;16.27;;;;;;;;;;5095613;28;20955;-72
2022/01/19 13:20:49;;;;;;;29.83;18.67;;;;;;;;;;5095761;28;20570;-71
2022/01/19 13:23:15;;;;;;;26.60;17.70;;;;;;;;;;5095737;28;20970;-72
2022/01/19 13:25:41;;;;;;;22.97;16.40;;;;;;;;;;5095540;28;20782;-70
2022/01/19 13:28:07;;;;;;;23.13;16.07;;;;;;;;;;5095464;28;20405;-75
2022/01/19 13:30:34;;;;;;;25.70;16.90;;;;;;;;;;5095463;28;20503;-71
2022/01/19 13:33:10;;;;;;;23.80;17.13;;;;;;;;;;5095533;28;20469;-73
2022/01/19 13:35:37;;;;;;;20.00;15.83;;;;;;;;;;5095384;28;20392;-71
2022/01/19 13:38:09;;;;;;;30.43;16.63;;;;;;;;;;5095274;28;20397;-71
2022/01/19 13:40:35;;;;;;;26.17;16.43;;;;;;;;;;5095130;28;20401;-68
2022/01/19 13:43:03;;;;;;;21.93;16.60;;;;;;;;;;5095275;28;20401;-72
2022/01/19 13:45:47;;;;;;;22.80;16.27;;;;;;;;;;5095212;28;20390;-68
2022/01/19 13:50:45;;;;;;;27.50;18.03;;;;;;;;;;5095041;28;20445;-71
2022/01/19 13:53:11;;;;;;;23.83;15.57;;;;;;;;;;5094789;28;20493;-69
2022/01/19 13:55:37;;;;;;;23.20;16.40;;;;;;;;;;5094714;28;20443;-72
2022/01/19 13:58:10;;;;;;;22.67;16.40;;;;;;;;;;5094726;28;20907;-69
2022/01/19 14:00:38;;;;;;;21.57;15.30;;;;;;;;;;5094562;28;20397;-68
2022/01/19 14:03:05;;;;;;;22.03;15.10;;;;;;;;;;5094361;28;20413;-71
2022/01/19 14:05:39;;;;;;;19.43;14.50;;;;;;;;;;5094794;28;20758;-72
2022/01/19 14:08:05;;;;;;;20.70;15.70;;;;;;;;;;5093571;28;20796;-70
2022/01/19 14:10:41;;;;;;;18.13;14.80;;;;;;;;;;5094791;28;20418;-71
2022/01/19 14:13:26;;;;;;;18.83;14.03;;;;;;;;;;5094653;28;20484;-71
2022/01/19 14:16:12;;;;;;;22.33;15.47;;;;;;;;;;5094610;28;20472;-72
2022/01/19 14:18:38;;;;;;;18.10;13.57;;;;;;;;;;5083909;28;20563;-70
2022/01/19 14:21:05;;;;;;;20.70;14.57;;;;;;;;;;5094534;28;20923;-72
2022/01/19 14:23:31;;;;;;;16.03;13.33;;;;;;;;;;5094756;28;20742;-73
2022/01/19 14:26:10;;;;;;;20.57;14.70;;;;;;;;;;5094483;28;20862;-73
2022/01/19 14:28:38;;;;;;;22.53;14.37;;;;;;;;;;5094346;28;20412;-71
2022/01/19 14:31:12;;;;;;;20.20;15.70;;;;;;;;;;5094247;28;20394;-71
2022/01/19 14:33:47;;;;;;;19.63;15.10;;;;;;;;;;5094082;28;20458;-70
2022/01/19 14:36:20;;;;;;;21.73;14.67;;;;;;;;;;5093640;28;20380;-71
2022/01/19 14:38:47;;;;;;;22.10;15.73;;;;;;;;;;5094352;28;20368;-69
2022/01/19 14:41:22;;;;;;;21.53;15.20;;;;;;;;;;5094217;28;20371;-71
2022/01/19 14:43:58;;;;;;;23.90;15.37;;;;;;;;;;5094097;28;20404;-70
2022/01/19 14:46:43;;;;;;;23.93;16.63;;;;;;;;;;5094140;28;20375;-75
2022/01/19 14:49:10;;;;;;;25.67;16.23;;;;;;;;;;5094332;28;20405;-72
2022/01/19 14:51:37;;;;;;;30.73;15.90;;;;;;;;;;5093911;28;20777;-73
2022/01/19 14:54:05;;;;;;;22.60;15.70;;;;;;;;;;5094038;28;20413;-73
2022/01/19 14:56:31;;;;;;;23.20;16.03;;;;;;;;;;5094176;28;20372;-75
2022/01/19 14:59:01;;;;;;;23.27;16.30;;;;;;;;;;5093949;28;20378;-73
2022/01/19 15:01:27;;;;;;;19.60;14.13;;;;;;;;;;5093882;28;20459;-76
2022/01/19 15:03:54;;;;;;;23.50;15.53;;;;;;;;;;5094097;28;20798;-75
2022/01/19 15:06:21;;;;;;;21.47;15.70;;;;;;;;;;5093859;28;20806;-75
2022/01/19 15:08:47;;;;;;;22.00;15.53;;;;;;;;;;5094086;28;20493;-75
2022/01/19 15:11:15;;;;;;;23.47;16.30;;;;;;;;;;5093752;28;20866;-75
2022/01/19 15:13:41;;;;;;;22.05;14.80;;;;;;;;;;5093700;28;20471;-76
2022/01/19 15:16:07;;;;;;;20.70;14.30;;;;;;;;;;5093641;28;20250;-75
2022/01/19 15:18:33;;;;;;;26.05;17.38;;;;;;;;;;5093309;28;20965;-72
2022/01/19 15:20:59;;;;;;;20.20;14.90;;;;;;;;;;5093573;28;20159;-74
2022/01/19 15:23:25;;;;;;;17.53;13.27;;;;;;;;;;5093483;28;20409;-72
2022/01/19 15:25:51;;;;;;;21.50;15.40;;;;;;;;;;5093724;28;20409;-67
2022/01/19 15:28:17;;;;;;;20.27;14.10;;;;;;;;;;5093565;28;20751;-65
2022/01/19 15:30:47;;;;;;;22.60;14.77;;;;;;;;;;5093874;28;20376;-61
2022/01/19 15:33:13;;;;;;;16.13;12.37;;;;;;;;;;5093404;28;20444;-61
2022/01/19 15:35:39;;;;;;;14.83;12.90;;;;;;;;;;5093382;28;20492;-67
2022/01/19 15:38:06;;;;;;;19.17;13.30;;;;;;;;;;5093370;28;20455;-67
2022/01/19 15:40:32;;;;;;;18.45;13.55;;;;;;;;;;5093469;28;20408;-70
2022/01/19 15:42:59;;;;;;;18.58;13.38;;;;;;;;;;5093410;28;20601;-71
2022/01/19 15:45:29;;;;;;;18.40;13.93;;;;;;;;;;5093451;28;20167;-72
2022/01/19 15:47:56;;;;;;;19.70;14.05;;;;;;;;;;5094864;28;20159;-72
2022/01/19 15:50:22;;;;;;;16.33;12.40;;;;;;;;;;5097535;28;20559;-72
2022/01/19 15:52:48;;;;;;;18.50;13.20;;;;;;;;;;5097442;28;20202;-72
2022/01/19 15:55:14;;;;;;;16.03;12.00;;;;;;;;;;5097461;28;20408;-71
2022/01/19 15:57:40;;;;;;;17.75;12.05;;;;;;;;;;5097397;28;20389;-72
2022/01/19 16:00:08;;;;;;;17.20;11.73;;;;;;;;;;5097492;28;20744;-71
2022/01/19 16:02:34;;;;;;;15.45;12.10;;;;;;;;;;5097433;28;20376;-72
2022/01/19 16:05:00;;;;;;;16.77;12.47;;;;;;;;;;5097227;28;20159;-71
2022/01/19 16:07:26;;;;;;;15.80;11.27;;;;;;;;;;5097208;28;20409;-73
2022/01/19 16:09:52;;;;;;;15.75;11.90;;;;;;;;;;5097132;28;20386;-74